Time;durP1;ratioP1;P1;durP2;ratioP2;P2;SDS_P1;SDS_P2;PMS_P1;PMS_P2;Temp;Humidity;BMP_temperature;BMP_pressure;BME280_temperature;BME280_humidity;BME280_pressure;Samples;Min_cycle;Max_cycle;Signal;HPM_P1;HPM_P2
2022/06/03 00:00:53;;;;;;;0.40;0.30;;;;;;;13.73;62.06;101078.92;102828;1284;138929;-70
2022/06/03 00:03:36;;;;;;;0.40;0.20;;;;;;;13.75;62.08;101082.98;104252;1284;108981;-68
2022/06/03 00:06:29;;;;;;;0.40;0.30;;;;;;;13.79;61.85;101083.95;103450;1284;139371;-69
2022/06/03 00:09:06;;;;;;;0.40;0.20;;;;;;;13.80;61.83;101088.17;103627;1284;95790;-69
2022/06/03 00:12:04;;;;;;;0.40;0.30;;;;;;;13.81;61.79;101089.94;103209;1284;138429;-68
2022/06/03 00:14:48;;;;;;;0.40;0.20;;;;;;;13.74;61.88;101089.97;102873;1284;100006;-69
2022/06/03 00:17:36;;;;;;;0.40;0.30;;;;;;;13.59;62.02;101091.81;102766;1284;139374;-69
2022/06/03 00:20:28;;;;;;;0.40;0.30;;;;;;;13.59;62.22;101091.27;102827;1284;95285;-67
2022/06/03 00:23:46;;;;;;;0.40;0.30;;;;;;;13.65;62.09;101091.45;102788;1284;138888;-69
2022/06/03 00:26:32;;;;;;;0.40;0.30;;;;;;;13.64;62.03;101089.52;102854;1284;110155;-69
2022/06/03 00:29:05;;;;;;;0.40;0.30;;;;;;;13.58;62.28;101091.50;102610;1286;139015;-70
2022/06/03 00:32:02;;;;;;;0.40;0.20;;;;;;;13.53;62.23;101092.33;102906;1284;108818;-68
2022/06/03 00:35:08;;;;;;;0.40;0.20;;;;;;;13.51;62.34;101089.88;102776;1284;95445;-68
2022/06/03 00:37:45;;;;;;;0.40;0.30;;;;;;;13.44;62.35;101090.45;102873;1284;96126;-68
2022/06/03 00:40:34;;;;;;;0.40;0.30;;;;;;;13.38;62.53;101089.71;102864;1284;109558;-69
2022/06/03 00:43:23;;;;;;;0.40;0.30;;;;;;;13.43;62.52;101086.87;102647;1284;138963;-69
2022/06/03 00:46:03;;;;;;;0.40;0.30;;;;;;;13.43;62.36;101087.62;102851;1284;109314;-68
2022/06/03 00:48:44;;;;;;;0.40;0.30;;;;;;;13.38;62.30;101089.88;102733;1284;138469;-69
2022/06/03 00:51:24;;;;;;;0.40;0.30;;;;;;;13.28;62.46;101086.00;102631;1287;95755;-68
2022/06/03 00:54:06;;;;;;;0.40;0.20;;;;;;;13.25;62.69;101091.08;102724;1284;139040;-68
2022/06/03 00:57:11;;;;;;;0.40;0.20;;;;;;;13.28;62.67;101092.06;102897;1284;98400;-68
2022/06/03 00:59:51;;;;;;;0.40;0.30;;;;;;;13.16;62.86;101088.83;102781;1284;139002;-69
2022/06/03 01:02:54;;;;;;;0.40;0.30;;;;;;;13.16;62.75;101092.54;102897;1284;96331;-67
2022/06/03 01:05:55;;;;;;;0.40;0.20;;;;;;;13.22;62.69;101092.05;103256;1284;138664;-70
2022/06/03 01:08:48;;;;;;;0.40;0.20;;;;;;;13.20;62.69;101094.06;103232;1284;109861;-67
2022/06/03 01:11:34;;;;;;;0.40;0.30;;;;;;;13.12;62.79;101096.77;102735;1284;139349;-69
2022/06/03 01:14:13;;;;;;;0.40;0.20;;;;;;;13.15;62.71;101098.30;102789;1284;108906;-71
2022/06/03 01:16:58;;;;;;;0.40;0.30;;;;;;;13.15;62.80;101097.58;103444;1284;138975;-70
2022/06/03 01:20:05;;;;;;;0.40;0.30;;;;;;;13.13;62.84;101094.77;103640;1284;95937;-71
2022/06/03 01:23:06;;;;;;;0.40;0.20;;;;;;;13.11;62.96;101096.44;102958;1284;109016;-69
2022/06/03 01:26:01;;;;;;;0.40;0.30;;;;;;;13.17;62.55;101092.72;103532;1284;99761;-69
2022/06/03 01:29:17;;;;;;;0.40;0.30;;;;;;;13.10;62.46;101094.48;102767;1284;107871;-69
2022/06/03 01:32:03;;;;;;;0.40;0.30;;;;;;;12.94;62.83;101093.10;102807;1284;97007;-71
2022/06/03 01:35:20;;;;;;;0.40;0.30;;;;;;;12.93;63.25;101094.23;102892;1284;95267;-68
2022/06/03 01:37:55;;;;;;;0.40;0.30;;;;;;;13.07;62.97;101093.67;103725;1284;108577;-69
2022/06/03 01:40:39;;;;;;;0.40;0.30;;;;;;;13.12;62.59;101092.49;103577;1284;99533;-70
2022/06/03 01:43:26;;;;;;;0.40;0.30;;;;;;;13.04;62.46;101090.38;103464;1284;108864;-68
2022/06/03 01:46:16;;;;;;;0.40;0.30;;;;;;;12.94;62.72;101085.80;103525;1285;95283;-69
2022/06/03 01:49:01;;;;;;;0.40;0.30;;;;;;;12.92;62.93;101085.16;102766;1284;138913;-70
2022/06/03 01:52:40;;;;;;;0.40;0.30;;;;;;;12.93;62.94;101084.23;103372;1284;108845;-68
2022/06/03 01:55:23;;;;;;;0.40;0.30;;;;;;;12.98;62.48;101081.63;101856;1290;99988;-69
2022/06/03 01:58:05;;;;;;;0.40;0.30;;;;;;;12.93;62.68;101086.55;102148;1290;109638;-69
2022/06/03 02:00:37;;;;;;;0.40;0.30;;;;;;;12.92;62.86;101082.46;103327;1284;139054;-69
2022/06/03 02:03:23;;;;;;;0.40;0.30;;;;;;;12.84;62.87;101081.25;103561;1284;95154;-70
2022/06/03 02:06:24;;;;;;;0.40;0.30;;;;;;;12.76;63.02;101080.73;103143;1284;139026;-70
2022/06/03 02:08:54;;;;;;;0.40;0.30;;;;;;;12.67;63.22;101085.91;103645;1284;99388;-68
2022/06/03 02:11:40;;;;;;;0.40;0.30;;;;;;;12.66;63.38;101091.48;103566;1284;139231;-69
2022/06/03 02:14:30;;;;;;;0.40;0.30;;;;;;;12.58;63.54;101090.23;103583;1284;95796;-69
2022/06/03 02:17:37;;;;;;;0.40;0.30;;;;;;;12.52;63.68;101089.66;103479;1284;138664;-69
2022/06/03 02:20:23;;;;;;;0.40;0.30;;;;;;;12.53;63.87;101088.76;103611;1284;110303;-67
2022/06/03 02:23:03;;;;;;;0.40;0.30;;;;;;;12.60;63.78;101086.81;103293;1287;139227;-69
2022/06/03 02:25:40;;;;;;;0.40;0.30;;;;;;;12.64;63.47;101089.91;102969;1284;108840;-69
2022/06/03 02:28:16;;;;;;;0.40;0.30;;;;;;;12.63;63.32;101087.79;103616;1284;95548;-69
2022/06/03 02:31:27;;;;;;;0.40;0.30;;;;;;;12.63;63.36;101088.17;102966;1284;139474;-70
2022/06/03 02:34:38;;;;;;;0.40;0.30;;;;;;;12.57;63.48;101088.30;103603;1284;109689;-70
2022/06/03 02:37:17;;;;;;;0.40;0.30;;;;;;;12.58;63.46;101086.33;103533;1284;138150;-70
2022/06/03 02:40:33;;;;;;;0.40;0.30;;;;;;;12.61;63.48;101086.08;103647;1284;108248;-70
2022/06/03 02:43:03;;;;;;;0.40;0.30;;;;;;;12.63;63.42;101085.48;102505;1284;138608;-68
2022/06/03 02:45:53;;;;;;;0.40;0.30;;;;;;;12.53;63.31;101086.80;103049;1284;95354;-67
2022/06/03 02:48:45;;;;;;;0.40;0.30;;;;;;;12.41;63.61;101088.31;102749;1284;138654;-69
2022/06/03 02:51:37;;;;;;;0.40;0.30;;;;;;;12.42;64.04;101094.16;102957;1284;99238;-70
2022/06/03 02:54:33;;;;;;;0.40;0.30;;;;;;;12.48;64.10;101095.48;102830;1284;139367;-69
2022/06/03 02:57:34;;;;;;;0.40;0.30;;;;;;;12.52;63.97;101098.73;103590;1284;95226;-70
2022/06/03 03:00:19;;;;;;;0.40;0.30;;;;;;;12.52;64.39;101104.98;103515;1284;138162;-69
2022/06/03 03:03:09;;;;;;;0.40;0.30;;;;;;;12.56;64.11;101108.80;103451;1284;109739;-69
2022/06/03 03:05:55;;;;;;;0.40;0.30;;;;;;;12.59;64.13;101113.55;103553;1284;139523;-68
2022/06/03 03:08:35;;;;;;;0.40;0.30;;;;;;;12.64;64.04;101114.67;103659;1284;108586;-69
2022/06/03 03:11:23;;;;;;;0.40;0.30;;;;;;;12.63;64.12;101116.48;102883;1284;139405;-69
2022/06/03 03:14:24;;;;;;;0.40;0.30;;;;;;;12.68;64.24;101121.71;103148;1284;96240;-67
2022/06/03 03:16:58;;;;;;;0.40;0.30;;;;;;;12.74;64.28;101121.75;102904;1284;139047;-69
2022/06/03 03:19:33;;;;;;;0.40;0.30;;;;;;;12.84;64.36;101126.34;102873;1284;98554;-71
2022/06/03 03:22:37;;;;;;;0.40;0.30;;;;;;;12.90;64.16;101129.56;103842;1284;108846;-69
2022/06/03 03:25:44;;;;;;;0.40;0.30;;;;;;;12.97;64.14;101131.17;103519;1284;139418;-68
2022/06/03 03:28:33;;;;;;;0.40;0.30;;;;;;;13.02;64.34;101135.70;102924;1284;96562;-68
2022/06/03 03:31:15;;;;;;;0.40;0.30;;;;;;;12.95;64.46;101134.98;103570;1284;138985;-68
2022/06/03 03:34:12;;;;;;;0.40;0.30;;;;;;;12.94;64.79;101141.77;102997;1284;99473;-69
2022/06/03 03:36:52;;;;;;;0.40;0.30;;;;;;;13.12;64.58;101137.06;103500;1283;138789;-69
2022/06/03 03:39:39;;;;;;;0.40;0.20;;;;;;;13.27;64.49;101143.98;103029;1284;95248;-68
2022/06/03 03:42:25;;;;;;;0.40;0.30;;;;;;;13.35;64.41;101147.16;103511;1284;138255;-67
2022/06/03 03:45:11;;;;;;;0.40;0.30;;;;;;;13.38;64.30;101151.77;102929;1284;110097;-68
2022/06/03 03:48:01;;;;;;;0.40;0.20;;;;;;;13.40;63.98;101158.33;103493;1284;139129;-69
2022/06/03 03:51:03;;;;;;;0.40;0.20;;;;;;;13.44;63.56;101159.98;103559;1284;108960;-70
2022/06/03 03:53:43;;;;;;;0.40;0.30;;;;;;;13.48;63.28;101163.64;103501;1284;138831;-66
2022/06/03 03:56:58;;;;;;;0.40;0.20;;;;;;;13.48;62.87;101167.39;102962;1283;95118;-67
2022/06/03 03:59:31;;;;;;;0.40;0.20;;;;;;;13.62;62.76;101170.43;103485;1284;138041;-69
2022/06/03 04:02:42;;;;;;;0.40;0.30;;;;;;;13.76;63.25;101170.21;102771;1284;97763;-70
2022/06/03 04:05:35;;;;;;;0.40;0.30;;;;;;;13.93;63.03;101171.00;103453;1284;138791;-67
2022/06/03 04:08:12;;;;;;;0.40;0.20;;;;;;;14.01;62.41;101165.95;102881;1284;95293;-69
2022/06/03 04:11:01;;;;;;;0.40;0.20;;;;;;;14.11;62.38;101167.11;102911;1284;95188;-69
2022/06/03 04:13:54;;;;;;;0.40;0.20;;;;;;;14.16;62.14;101169.64;103377;1283;110130;-68
2022/06/03 04:16:28;;;;;;;0.40;0.30;;;;;;;14.22;61.79;101169.65;102981;1284;99423;-70
2022/06/03 04:19:34;;;;;;;0.40;0.20;;;;;;;14.37;61.97;101167.77;103576;1284;138900;-68
2022/06/03 04:22:14;;;;;;;0.40;0.20;;;;;;;14.51;61.17;101171.45;103625;1283;95792;-70
2022/06/03 04:24:58;;;;;;;0.40;0.20;;;;;;;14.60;61.08;101171.55;102905;1284;138271;-69
2022/06/03 04:28:11;;;;;;;0.40;0.20;;;;;;;14.67;60.57;101174.77;103004;1284;109784;-69
2022/06/03 04:31:03;;;;;;;0.40;0.20;;;;;;;14.85;60.09;101174.91;102849;1284;139594;-67
2022/06/03 04:33:50;;;;;;;0.40;0.20;;;;;;;14.92;59.73;101174.89;102940;1284;109355;-68
2022/06/03 04:37:02;;;;;;;0.40;0.20;;;;;;;15.10;59.94;101176.80;103275;1284;138869;-68
2022/06/03 04:39:58;;;;;;;0.40;0.20;;;;;;;15.30;59.44;101177.94;102628;1284;95488;-68
2022/06/03 04:42:38;;;;;;;0.40;0.30;;;;;;;15.34;59.81;101179.40;102938;1284;138877;-69
2022/06/03 04:45:12;;;;;;;0.40;0.20;;;;;;;15.41;59.44;101179.55;102898;1284;99464;-69
2022/06/03 04:48:11;;;;;;;0.40;0.20;;;;;;;15.41;58.38;101181.31;102861;1284;138596;-67
2022/06/03 04:51:29;;;;;;;0.40;0.20;;;;;;;15.43;58.35;101182.53;102915;1284;95646;-69
2022/06/03 04:54:45;;;;;;;0.40;0.20;;;;;;;15.47;57.82;101189.35;102645;1285;138292;-73
2022/06/03 04:57:34;;;;;;;0.40;0.20;;;;;;;15.57;58.28;101188.65;103557;1284;109745;-66
2022/06/03 05:00:27;;;;;;;0.40;0.20;;;;;;;15.70;57.11;101183.20;102836;1284;139166;-67
2022/06/03 05:03:17;;;;;;;0.40;0.20;;;;;;;15.87;56.93;101187.65;102829;1284;108820;-66
2022/06/03 05:06:20;;;;;;;0.40;0.20;;;;;;;16.03;55.96;101190.30;102844;1284;138353;-66
2022/06/03 05:09:26;;;;;;;0.40;0.20;;;;;;;16.14;54.95;101188.30;102709;1284;95751;-67
2022/06/03 05:12:20;;;;;;;0.40;0.20;;;;;;;16.35;55.35;101191.98;102760;1284;138595;-66
2022/06/03 05:15:23;;;;;;;0.40;0.20;;;;;;;16.56;55.20;101191.20;102691;1284;98505;-67
2022/06/03 05:18:10;;;;;;;0.40;0.20;;;;;;;16.67;54.54;101194.19;102615;1284;138213;-68
2022/06/03 05:21:03;;;;;;;0.40;0.20;;;;;;;16.80;54.42;101195.64;102502;1284;291654;-64
2022/06/03 05:23:36;;;;;;;0.40;0.20;;;;;;;16.94;54.48;101202.31;102687;1284;139128;-66
2022/06/03 05:26:52;;;;;;;0.40;0.20;;;;;;;17.07;53.84;101193.85;102783;1284;109860;-67
2022/06/03 05:29:51;;;;;;;0.40;0.20;;;;;;;17.21;53.16;101198.48;102474;1284;140809;-66
2022/06/03 05:32:37;;;;;;;0.40;0.20;;;;;;;17.27;51.73;101199.89;102777;1284;108803;-66
2022/06/03 05:35:30;;;;;;;0.40;0.20;;;;;;;17.33;52.09;101200.72;102720;1284;138621;-68
2022/06/03 05:38:30;;;;;;;0.40;0.10;;;;;;;17.42;52.03;101201.42;102789;1284;95365;-67
2022/06/03 05:41:04;;;;;;;0.40;0.10;;;;;;;17.56;51.00;101204.76;102268;1287;138407;-66
2022/06/03 05:44:00;;;;;;;0.40;0.10;;;;;;;17.66;50.57;101195.36;102876;1284;99522;-66
2022/06/03 05:46:54;;;;;;;0.40;0.20;;;;;;;17.72;50.00;101196.75;102818;1284;108840;-67
2022/06/03 05:49:38;;;;;;;0.40;0.20;;;;;;;17.86;50.81;101199.19;102831;1284;95687;-67
2022/06/03 05:52:33;;;;;;;0.40;0.10;;;;;;;17.94;50.08;101199.60;102914;1284;95548;-67
2022/06/03 05:55:16;;;;;;;0.40;0.20;;;;;;;17.95;49.31;101202.60;102726;1284;138362;-67
2022/06/03 05:58:22;;;;;;;0.40;0.10;;;;;;;17.99;49.90;101201.16;102938;1284;99852;-66
2022/06/03 06:01:21;;;;;;;0.40;0.10;;;;;;;18.00;48.88;101201.50;102508;1285;138250;-66
2022/06/03 06:04:09;;;;;;;0.40;0.10;;;;;;;18.01;48.83;101203.22;102605;1284;95274;-69
2022/06/03 06:06:47;;;;;;;0.40;0.10;;;;;;;18.10;49.42;101205.16;102606;1284;138258;-65
2022/06/03 06:09:30;;;;;;;0.40;0.20;;;;;;;18.10;48.81;101205.14;102520;1284;108254;-68
2022/06/03 06:12:22;;;;;;;0.40;0.10;;;;;;;18.14;48.81;101207.83;104871;1284;138432;-66
2022/06/03 06:15:10;;;;;;;0.40;0.10;;;;;;;18.27;49.78;101209.25;102851;1284;108646;-67
2022/06/03 06:17:54;;;;;;;0.40;0.10;;;;;;;18.30;45.71;101208.40;102822;1284;138959;-67
2022/06/03 06:20:43;;;;;;;0.40;0.10;;;;;;;18.31;45.49;101211.20;102994;1284;95638;-67
2022/06/03 06:23:28;;;;;;;0.40;0.20;;;;;;;18.43;47.06;101214.62;102841;1284;139149;-66
2022/06/03 06:26:05;;;;;;;0.40;0.10;;;;;;;18.47;45.76;101214.11;102954;1284;99334;-65
2022/06/03 06:28:48;;;;;;;0.40;0.10;;;;;;;18.47;46.61;101212.27;103043;1284;108833;-66
2022/06/03 06:31:43;;;;;;;0.40;0.10;;;;;;;18.51;46.53;101211.73;103011;1284;95277;-65
2022/06/03 06:34:11;;;;;;;0.40;0.10;;;;;;;18.55;45.93;101211.03;103045;1284;95140;-66
2022/06/03 06:36:48;;;;;;;0.40;0.10;;;;;;;18.61;45.43;101210.41;102862;1284;138418;-67
2022/06/03 06:39:47;;;;;;;0.40;0.10;;;;;;;18.64;45.10;101212.38;103050;1284;99633;-67
2022/06/03 06:42:28;;;;;;;0.40;0.10;;;;;;;18.69;45.27;101213.63;102912;1284;138777;-66
2022/06/03 06:45:05;;;;;;;0.40;0.10;;;;;;;18.71;45.93;101209.01;102963;1284;96368;-68
2022/06/03 06:47:50;;;;;;;0.40;0.10;;;;;;;18.81;45.61;101207.09;102924;1284;138349;-65
2022/06/03 06:50:26;;;;;;;0.40;0.10;;;;;;;18.92;45.61;101210.58;103069;1283;109755;-66
2022/06/03 06:53:10;;;;;;;0.40;0.10;;;;;;;18.97;45.51;101212.13;103008;1284;138692;-67
2022/06/03 06:56:03;;;;;;;0.40;0.10;;;;;;;19.12;45.64;101209.98;102982;1284;108907;-66
2022/06/03 06:58:42;;;;;;;0.40;0.10;;;;;;;19.24;45.09;101209.36;102986;1284;95783;-70
2022/06/03 07:01:17;;;;;;;0.40;0.10;;;;;;;19.32;45.21;101209.14;103139;1284;95173;-70
2022/06/03 07:03:50;;;;;;;0.40;0.10;;;;;;;19.48;45.12;101205.86;104183;1284;109726;-68
2022/06/03 07:06:26;;;;;;;0.40;0.10;;;;;;;19.64;44.30;101202.11;103527;1284;138374;-69
2022/06/03 07:09:10;;;;;;;0.40;0.10;;;;;;;19.70;44.27;101203.63;103609;1284;108912;-71
2022/06/03 07:11:50;;;;;;;0.40;0.10;;;;;;;19.74;44.74;101203.06;102817;1284;138963;-71
2022/06/03 07:14:25;;;;;;;0.40;0.10;;;;;;;19.75;44.24;101197.27;103640;1284;95150;-70
2022/06/03 07:20:05;;;;;;;0.40;0.10;;;;;;;19.83;44.81;101192.73;103605;1284;100348;-69
2022/06/03 07:23:19;;;;;;;0.40;0.10;;;;;;;19.95;45.22;101192.65;103551;1283;108779;-68
2022/06/03 07:25:54;;;;;;;0.40;0.10;;;;;;;20.05;42.90;101188.67;103243;1284;96697;-68
2022/06/03 07:28:33;;;;;;;0.40;0.10;;;;;;;20.13;43.78;101191.87;104037;1287;140151;-68
2022/06/03 07:31:24;;;;;;;0.40;0.10;;;;;;;20.19;43.39;101190.77;103734;1284;108853;-70
2022/06/03 07:34:23;;;;;;;0.40;0.10;;;;;;;20.27;43.80;101187.15;103370;1284;138842;-69
2022/06/03 07:37:02;;;;;;;0.40;0.10;;;;;;;20.31;42.55;101190.89;103179;1284;108877;-70
2022/06/03 07:39:53;;;;;;;0.40;0.10;;;;;;;20.22;41.60;101190.98;103434;1284;138593;-70
2022/06/03 07:42:31;;;;;;;0.40;0.10;;;;;;;20.18;41.78;101195.02;103578;1284;95168;-70
2022/06/03 07:45:07;;;;;;;0.40;0.10;;;;;;;20.21;41.67;101191.09;103356;1287;138289;-70
2022/06/03 07:47:36;;;;;;;0.40;0.10;;;;;;;20.29;41.21;101189.38;103464;1284;97803;-68
2022/06/03 07:50:07;;;;;;;0.40;0.10;;;;;;;20.34;39.99;101190.19;103457;1284;108803;-70
2022/06/03 07:52:59;;;;;;;0.40;0.10;;;;;;;20.41;39.48;101185.83;103324;1284;138462;-69
2022/06/03 07:55:29;;;;;;;0.40;0.10;;;;;;;20.57;39.45;101184.23;103530;1284;95680;-70
2022/06/03 07:58:08;;;;;;;0.40;0.10;;;;;;;20.66;39.81;101187.34;103380;1284;138117;-70
2022/06/03 08:00:38;;;;;;;0.40;0.10;;;;;;;20.76;39.64;101185.94;103554;1284;99513;-70
2022/06/03 08:03:13;;;;;;;0.40;0.10;;;;;;;20.91;39.13;101186.17;103347;1284;138263;-67
2022/06/03 08:05:47;;;;;;;0.40;0.10;;;;;;;20.97;38.83;101187.83;102570;1284;95190;-69
2022/06/03 08:11:31;;;;;;;0.40;0.10;;;;;;;21.09;38.24;101182.42;102571;1284;138038;-71
2022/06/03 08:14:01;;;;;;;0.40;0.10;;;;;;;21.23;38.18;101184.13;103655;1284;97847;-70
2022/06/03 08:16:29;;;;;;;0.40;0.10;;;;;;;21.35;38.11;101183.23;103736;1284;138081;-68
2022/06/03 08:19:05;;;;;;;0.40;0.10;;;;;;;21.52;38.54;101180.42;103712;1284;95557;-69
2022/06/03 08:22:04;;;;;;;0.40;0.10;;;;;;;21.66;38.07;101181.44;102845;1284;138220;-69
2022/06/03 08:24:38;;;;;;;0.40;0.10;;;;;;;21.64;37.43;101187.34;102807;1284;109749;-69
2022/06/03 08:27:22;;;;;;;0.40;0.10;;;;;;;21.58;37.84;101182.11;103010;1283;138564;-68
2022/06/03 08:29:59;;;;;;;0.40;0.00;;;;;;;21.50;37.88;101181.27;103791;1284;107915;-70
2022/06/03 08:32:35;;;;;;;0.40;0.10;;;;;;;21.44;37.42;101179.66;103626;1284;95678;-70
2022/06/03 08:35:23;;;;;;;0.40;0.10;;;;;;;21.60;38.00;101175.64;103604;1284;138379;-69
2022/06/03 08:38:05;;;;;;;0.40;0.10;;;;;;;21.73;37.30;101174.00;103819;1284;110324;-69
2022/06/03 08:40:41;;;;;;;0.40;0.10;;;;;;;21.83;37.36;101175.36;103561;1284;138290;-67
2022/06/03 08:43:18;;;;;;;0.40;0.10;;;;;;;22.15;37.99;101167.23;103644;1284;108771;-70
2022/06/03 08:46:00;;;;;;;0.40;0.10;;;;;;;22.53;37.63;101165.44;103442;1284;139441;-69
2022/06/03 08:48:38;;;;;;;0.40;0.10;;;;;;;22.87;37.27;101164.69;103902;1284;95156;-70
2022/06/03 08:51:40;;;;;;;0.40;0.10;;;;;;;23.06;36.43;101164.69;103504;1284;138363;-70
2022/06/03 08:54:30;;;;;;;0.40;0.10;;;;;;;23.07;35.06;101166.06;103653;1284;100152;-69
2022/06/03 08:57:06;;;;;;;0.40;0.10;;;;;;;23.18;35.48;101166.63;103501;1284;138336;-71
2022/06/03 08:59:43;;;;;;;0.40;0.10;;;;;;;23.15;35.72;101167.54;103578;1284;95242;-71
2022/06/03 09:02:28;;;;;;;0.40;0.10;;;;;;;23.25;36.61;101160.74;103576;1284;95878;-70
2022/06/03 09:05:04;;;;;;;0.40;0.10;;;;;;;23.58;35.20;101159.25;103720;1284;138594;-68
2022/06/03 09:07:50;;;;;;;0.40;0.10;;;;;;;23.81;34.17;101160.16;103046;1284;99465;-68
2022/06/03 09:10:33;;;;;;;0.40;0.10;;;;;;;23.90;34.18;101158.98;102839;1284;138336;-67
2022/06/03 09:13:19;;;;;;;0.40;0.10;;;;;;;24.06;33.44;101159.35;102996;1284;95865;-67
2022/06/03 09:15:49;;;;;;;0.40;0.10;;;;;;;24.75;32.87;101161.96;102897;1284;138367;-69
2022/06/03 09:18:42;;;;;;;0.40;0.10;;;;;;;25.62;31.62;101158.75;103131;1284;109737;-70
2022/06/03 09:21:13;;;;;;;0.40;0.10;;;;;;;27.04;30.70;101157.95;103666;1284;138574;-70
2022/06/03 09:23:46;;;;;;;0.40;0.00;;;;;;;28.02;29.54;101161.84;103602;1284;108795;-70
2022/06/03 09:26:22;;;;;;;0.40;0.00;;;;;;;28.43;27.89;101161.52;103626;1284;96679;-69
2022/06/03 09:28:51;;;;;;;0.40;0.10;;;;;;;28.86;26.48;101155.44;102863;1284;138169;-71
2022/06/03 09:31:20;;;;;;;0.40;0.00;;;;;;;29.38;26.01;101151.63;103532;1284;109364;-70
2022/06/03 09:33:55;;;;;;;0.40;0.00;;;;;;;29.08;26.71;101156.00;103572;1284;140522;-69
2022/06/03 09:36:24;;;;;;;0.40;0.00;;;;;;;29.05;26.23;101158.10;103726;1283;109084;-70
2022/06/03 09:39:02;;;;;;;0.40;0.00;;;;;;;29.33;26.83;101157.19;103470;1284;139411;-71
2022/06/03 09:41:36;;;;;;;0.40;0.00;;;;;;;29.19;26.63;101154.59;103866;1283;95446;-71
2022/06/03 09:44:07;;;;;;;0.40;0.10;;;;;;;29.84;25.77;101152.55;103637;1284;109780;-69
2022/06/03 09:46:37;;;;;;;0.40;0.00;;;;;;;30.69;23.53;101156.39;103580;1283;138361;-70
2022/06/03 09:49:08;;;;;;;0.40;0.00;;;;;;;31.49;23.60;101153.86;103651;1284;108731;-69
2022/06/03 09:51:56;;;;;;;0.40;0.00;;;;;;;32.24;22.06;101159.29;103608;1284;138845;-70
2022/06/03 09:54:37;;;;;;;0.40;0.00;;;;;;;32.88;22.29;101156.95;103694;1284;95203;-71
2022/06/03 09:57:35;;;;;;;0.40;0.00;;;;;;;33.28;21.33;101149.64;103659;1284;138234;-71
2022/06/03 10:00:12;;;;;;;0.40;0.00;;;;;;;32.42;21.71;101157.77;103641;1284;99551;-71
2022/06/03 10:02:42;;;;;;;0.40;0.00;;;;;;;33.00;21.63;101149.22;103722;1284;107101;-71
2022/06/03 10:05:15;;;;;;;0.40;0.00;;;;;;;33.58;20.32;101143.45;103686;1284;95377;-71
2022/06/03 10:07:56;;;;;;;0.40;0.00;;;;;;;33.84;19.32;101142.38;103692;1284;96222;-71
2022/06/03 10:13:11;;;;;;;0.40;0.00;;;;;;;35.53;19.25;101126.86;103689;1284;99483;-72
2022/06/03 10:15:45;;;;;;;0.40;0.00;;;;;;;36.18;18.02;101130.27;103467;1284;138135;-73
2022/06/03 10:18:22;;;;;;;0.40;0.00;;;;;;;35.39;17.76;101126.45;103655;1284;95297;-72
2022/06/03 10:20:57;;;;;;;0.40;0.00;;;;;;;34.91;17.51;101127.98;103563;1283;138373;-73
2022/06/03 10:23:32;;;;;;;0.40;0.00;;;;;;;34.55;17.88;101128.99;103708;1284;110163;-71
2022/06/03 10:26:26;;;;;;;0.40;0.00;;;;;;;34.15;18.82;101128.86;103608;1283;98368;-71
2022/06/03 10:28:56;;;;;;;0.40;0.00;;;;;;;33.30;20.07;101129.40;103531;1284;138595;-72
2022/06/03 10:31:32;;;;;;;0.40;0.00;;;;;;;34.01;20.51;101126.56;104096;1284;95829;-72
2022/06/03 10:34:10;;;;;;;0.40;0.00;;;;;;;35.17;19.35;101127.48;103433;1285;138166;-71
2022/06/03 10:36:44;;;;;;;0.40;0.00;;;;;;;35.99;18.47;101121.73;103653;1284;109998;-71
2022/06/03 10:39:15;;;;;;;0.40;0.00;;;;;;;36.32;17.73;101116.23;103582;1284;138578;-71
2022/06/03 10:41:50;;;;;;;0.40;0.00;;;;;;;36.59;17.04;101115.89;103623;1284;107614;-72
2022/06/03 10:44:21;;;;;;;0.40;0.00;;;;;;;36.49;17.04;101120.38;103702;1284;95277;-71
2022/06/03 10:47:04;;;;;;;0.40;0.00;;;;;;;35.10;17.95;101118.63;103607;1284;138182;-72
2022/06/03 10:49:37;;;;;;;0.40;0.00;;;;;;;34.05;18.73;101121.32;103663;1284;109872;-72
2022/06/03 11:03:25;;;;;;;0.40;0.00;;;;;;;32.40;20.89;101115.70;103592;1284;137934;-70
2022/06/03 11:05:53;;;;;;;0.40;0.00;;;;;;;31.51;21.78;101107.13;103979;1284;99459;-71
2022/06/03 11:08:21;;;;;;;0.40;0.00;;;;;;;31.10;22.28;101104.70;103688;1284;109063;-72
2022/06/03 11:10:55;;;;;;;0.40;0.00;;;;;;;30.15;22.48;101104.45;103608;1284;138298;-71
2022/06/03 11:13:38;;;;;;;0.40;0.00;;;;;;;29.36;23.50;101104.55;103981;1283;95258;-71
2022/06/03 11:16:20;;;;;;;0.40;0.00;;;;;;;28.78;24.26;101104.27;103839;1284;138230;-71
2022/06/03 11:18:48;;;;;;;0.40;0.00;;;;;;;28.48;24.71;101108.79;103795;1284;99518;-72
2022/06/03 11:21:28;;;;;;;0.40;0.00;;;;;;;28.25;25.31;101106.66;103546;1284;138327;-70
2022/06/03 11:23:59;;;;;;;0.40;0.00;;;;;;;27.99;25.71;101100.75;103723;1284;95552;-70
2022/06/03 11:26:37;;;;;;;0.40;0.00;;;;;;;27.72;26.67;101096.36;103681;1284;95254;-72
2022/06/03 11:29:12;;;;;;;0.40;0.00;;;;;;;27.51;26.60;101093.61;103562;1284;138673;-68
2022/06/03 11:31:44;;;;;;;0.40;0.00;;;;;;;27.20;27.74;101086.56;103051;1284;98401;-68
2022/06/03 11:34:35;;;;;;;0.40;0.00;;;;;;;26.92;27.38;101087.17;103508;1284;138669;-69
2022/06/03 11:37:13;;;;;;;0.40;0.00;;;;;;;26.60;27.64;101086.74;103776;1284;95132;-68
2022/06/03 11:39:48;;;;;;;0.40;0.10;;;;;;;26.08;28.80;101084.18;102918;1284;138141;-69
2022/06/03 11:42:56;;;;;;;0.40;0.00;;;;;;;25.77;28.43;101084.79;103669;1283;110108;-68
2022/06/03 11:45:37;;;;;;;0.40;0.00;;;;;;;25.67;29.14;101082.55;102777;1284;138966;-69
2022/06/03 11:48:37;;;;;;;0.40;0.00;;;;;;;25.53;29.54;101082.91;103243;1284;108803;-70
2022/06/03 11:51:11;;;;;;;0.40;0.00;;;;;;;25.57;29.62;101080.42;103477;1284;139137;-70
2022/06/03 11:53:47;;;;;;;0.40;0.00;;;;;;;25.62;29.37;101075.96;103811;1284;95469;-70
2022/06/03 11:56:25;;;;;;;0.40;0.00;;;;;;;25.61;30.06;101069.70;103790;1284;109704;-70
2022/06/03 11:59:08;;;;;;;0.40;0.00;;;;;;;25.68;30.48;101068.44;103756;1284;138309;-69
2022/06/03 12:01:48;;;;;;;0.40;0.00;;;;;;;25.50;30.41;101068.59;102875;1284;108162;-69
2022/06/03 12:04:36;;;;;;;0.40;0.00;;;;;;;25.41;30.80;101066.54;102743;1284;138927;-69
2022/06/03 12:07:45;;;;;;;0.40;0.00;;;;;;;25.44;31.09;101064.88;103012;1284;95206;-69
2022/06/03 12:10:22;;;;;;;0.40;0.00;;;;;;;25.27;30.57;101062.20;102885;1283;138687;-68
2022/06/03 12:13:17;;;;;;;0.40;0.00;;;;;;;24.85;31.07;101058.43;103677;1284;99457;-69
2022/06/03 12:15:54;;;;;;;0.40;0.00;;;;;;;24.68;30.76;101053.55;102892;1284;138183;-69
2022/06/03 12:18:35;;;;;;;0.40;0.10;;;;;;;24.66;31.16;101049.73;103275;1284;96316;-69
2022/06/03 12:21:08;;;;;;;0.40;0.00;;;;;;;24.72;31.63;101049.69;102843;1284;138417;-67
2022/06/03 12:23:36;;;;;;;0.40;0.00;;;;;;;24.61;30.04;101047.73;102745;1284;109861;-68
2022/06/03 12:26:23;;;;;;;0.40;0.00;;;;;;;24.48;30.87;101041.08;102643;1284;98748;-68
2022/06/03 12:28:54;;;;;;;0.40;0.00;;;;;;;24.42;30.88;101043.71;103012;1284;138619;-69
2022/06/03 12:31:22;;;;;;;0.40;0.10;;;;;;;24.37;31.08;101039.85;103841;1283;95241;-69
2022/06/03 12:34:31;;;;;;;0.40;0.00;;;;;;;24.35;31.01;101038.94;102807;1284;138980;-70
2022/06/03 12:37:01;;;;;;;0.40;0.00;;;;;;;24.41;32.10;101031.60;102736;1284;110234;-68
2022/06/03 12:39:31;;;;;;;0.40;0.00;;;;;;;24.42;31.89;101027.75;102742;1284;139122;-69
2022/06/03 12:42:28;;;;;;;0.40;0.00;;;;;;;24.52;33.16;101024.74;102942;1284;108204;-69
2022/06/03 12:45:05;;;;;;;0.40;0.00;;;;;;;24.59;31.50;101025.75;102369;1284;138876;-69
2022/06/03 12:47:35;;;;;;;0.40;0.00;;;;;;;24.52;30.34;101026.77;103012;1284;95465;-68
2022/06/03 12:50:30;;;;;;;0.40;0.00;;;;;;;24.54;30.59;101030.23;103000;1284;111069;-69
2022/06/03 12:53:22;;;;;;;0.40;0.00;;;;;;;24.57;30.99;101024.57;103328;1284;138507;-68